KCSQ/CSQ METAR and TAF weather

Enter ICAO airport designator
Station Type Date Time Source
KCSQ METAR 2020/08/14 17:15 UTC NOAA

KCSQ 141715Z AUTO 15009KT 10SM FEW031 28/23 A3000 RMK AO2


Station Type Date Time Source
KCSQ Decoded METAR 2020/08/14 17:15 UTC NOAA

Creston, IA, United States (KCSQ) 41-01N 094-22W
Aug 14, 2020 - 01:15 PM EDT / 2020.08.14 1715 UTC
Wind: from the SSE (150 degrees) at 10 MPH (9 KT):0
Visibility: 10 mile(s):0
Sky conditions: mostly clear
Temperature: 82 F (28 C)
Dew Point: 73 F (23 C)
Relative Humidity: 74%
Pressure (altimeter): 30 in. Hg (1015 hPa)
ob: KCSQ 141715Z AUTO 15009KT 10SM FEW031 28/23 A3000 RMK AO2
cycle: 17

Station Type Date Time Source
KCSQ TAF UTC NOAA

Error!

Example: see airport list